Flight Number: EUR1197 Duration: 3:30
Departure: Athens Int'l (LGAV) at 06:30 Distance: 1300 Nm
Arrival: Gatwick Airport (EGKK) at 10:00 Equipment: A330-200

Weather Information
Athens Eleftherios Venizelos International Airport, Greece (LGAV) 37-56N 023-56E Aug 19, 2018 - 04:50 AM EDT / 2018.08.19 0850 UTC
Wind: from the N (360 degrees) at 21 MPH (18 KT) gusting to 32 MPH (28 KT):0
Visibility: greater than 7 mile(s):0 Temperature: 86 F (30 C) Dew Point: 57 F (14 C) Relative Humidity: 37% Pressure (altimeter): 29.85 in. Hg (1011 hPa)
ob: LGAV 190850Z 36018G28KT CAVOK 30/14 Q1011 NOSIG cycle: 9
Sunrise: 03:46 Sunset: 17:09 (UTC)

London / Gatwick Airport, United Kingdom (EGKK) 51-09N 000-11W 0M Aug 19, 2018 - 04:50 AM EDT / 2018.08.19 0850 UTC
Wind: from the SW (220 degrees) at 13 MPH (11 KT) (direction variable):0
Visibility: greater than 7 mile(s):0
Sky conditions: mostly cloudy Temperature: 64 F (18 C) Dew Point: 59 F (15 C) Relative Humidity: 82% Pressure (altimeter): 30.09 in. Hg (1019 hPa)
ob: EGKK 190850Z 22011KT 180V250 9999 BKN013 18/15 Q1019 cycle: 9
Sunrise: 04:58 Sunset: 19:10 (UTC)

TAF:2018/08/19 06:20 TAF EGKK 190458Z 1906/2012 22008KT 9999 BKN020 TEMPO 1906/1915 BKN010 PROB30 TEMPO 1906/1914 7000 -DZ BKN007 PROB30 TEMPO 1911/1915 22015G25KT PROB30 TEMPO 2002/2008 5000 HZ BKN006

Previous Pireps for this route
Date Aircraft Flight time Fuel used Landing rate On time
2012-09-17MD-8103.3426749-221No
2012-10-04MD-8103.4425157-261No
2013-10-17A330-2003.50521860No
2013-10-18MD-813.00280000No
2014-08-14MD-8103.2721510-221No
(pireps marked green are flown by you)

Route map